Time;durP1;ratioP1;P1;durP2;ratioP2;P2;SDS_P1;SDS_P2;PMS_P1;PMS_P2;Temp;Humidity;BMP_temperature;BMP_pressure;BME280_temperature;BME280_humidity;BME280_pressure;Samples;Min_cycle;Max_cycle;Signal;HPM_P1;HPM_P2
2021/05/09 00:00:37;;;;;;;4.25;3.10;;;;;;;15.24;53.55;100103.13;5036604;28;20025;-76
2021/05/09 00:03:02;;;;;;;3.22;2.92;;;;;;;15.11;53.68;100089.75;5036554;28;20339;-77
2021/05/09 00:05:28;;;;;;;5.72;3.13;;;;;;;14.89;53.59;100064.22;5019204;28;20043;-76
2021/05/09 00:07:53;;;;;;;4.22;3.45;;;;;;;15.16;53.67;100123.75;5036798;28;20021;-76
2021/05/09 00:10:19;;;;;;;5.97;2.85;;;;;;;15.15;53.75;100130.06;5036637;28;20029;-75
2021/05/09 00:12:46;;;;;;;7.70;3.60;;;;;;;15.12;54.01;100125.16;5036338;28;20040;-76
2021/05/09 00:15:13;;;;;;;3.42;3.13;;;;;;;15.07;53.73;100119.59;5038004;28;20029;-77
2021/05/09 00:17:39;;;;;;;3.80;3.45;;;;;;;15.11;53.95;100134.13;5037720;28;20048;-78
2021/05/09 00:20:09;;;;;;;5.57;3.50;;;;;;;15.07;54.16;100135.53;5036215;28;20029;-77
2021/05/09 00:22:35;;;;;;;3.72;3.15;;;;;;;14.90;54.45;100125.19;5036168;28;20032;-76
2021/05/09 00:25:01;;;;;;;3.58;3.20;;;;;;;14.77;54.45;100105.59;5036232;28;20108;-77
2021/05/09 00:27:26;;;;;;;3.80;3.40;;;;;;;15.04;54.27;100155.38;5036045;28;20033;-76
2021/05/09 00:29:53;;;;;;;3.30;3.00;;;;;;;14.75;54.15;100111.13;5036114;28;20419;-76
2021/05/09 00:32:18;;;;;;;4.15;3.33;;;;;;;14.87;54.13;100128.22;5036024;28;20479;-77
2021/05/09 00:34:43;;;;;;;5.38;3.70;;;;;;;15.06;54.19;100158.66;5035825;28;20109;-77
2021/05/09 00:37:09;;;;;;;5.00;3.53;;;;;;;15.03;54.10;100172.34;5036064;28;20033;-75
2021/05/09 00:39:34;;;;;;;3.90;3.20;;;;;;;15.02;54.33;100168.03;5035924;28;20099;-75
2021/05/09 00:42:04;;;;;;;4.63;3.25;;;;;;;15.02;54.29;100162.72;5018395;28;20344;-77
2021/05/09 00:44:30;;;;;;;5.90;3.13;;;;;;;14.99;54.43;100162.28;5035781;28;20032;-77
2021/05/09 00:46:55;;;;;;;6.97;3.17;;;;;;;14.79;54.02;100154.09;5035871;28;20034;-76
2021/05/09 00:49:21;;;;;;;7.90;3.50;;;;;;;14.80;54.39;100169.03;5018200;28;20033;-79
2021/05/09 00:51:48;;;;;;;5.53;3.38;;;;;;;14.66;54.28;100148.66;5035788;28;20083;-75
2021/05/09 00:54:16;;;;;;;8.88;3.78;;;;;;;14.37;54.45;100115.00;5035799;28;20036;-78
2021/05/09 00:56:42;;;;;;;5.43;3.15;;;;;;;14.62;54.60;100167.63;5035624;28;20029;-78
2021/05/09 00:59:09;;;;;;;7.50;3.35;;;;;;;14.32;54.76;100132.34;5035663;28;20029;-77
2021/05/09 01:01:36;;;;;;;7.05;3.67;;;;;;;14.20;54.72;100101.13;5035375;28;20113;-75
2021/05/09 01:04:02;;;;;;;7.80;3.63;;;;;;;14.26;54.50;100125.13;5017721;28;20025;-77
2021/05/09 01:06:28;;;;;;;4.72;3.30;;;;;;;14.21;54.73;100119.53;5035471;28;20032;-77
2021/05/09 01:08:54;;;;;;;3.78;3.33;;;;;;;14.60;54.71;100174.13;5035611;28;20029;-77
2021/05/09 01:11:19;;;;;;;5.25;3.28;;;;;;;14.29;54.79;100147.81;5035386;28;20033;-77
2021/05/09 01:13:45;;;;;;;3.53;2.95;;;;;;;14.56;54.82;100176.34;5035176;28;20036;-76
2021/05/09 01:16:11;;;;;;;6.88;3.75;;;;;;;14.58;54.91;100182.31;5017964;28;20116;-76
2021/05/09 01:18:36;;;;;;;7.28;3.25;;;;;;;14.24;54.86;100136.94;5035073;28;20104;-76
2021/05/09 01:21:02;;;;;;;5.90;3.40;;;;;;;14.23;55.08;100129.97;5035215;28;20478;-76
2021/05/09 01:23:27;;;;;;;4.28;3.35;;;;;;;14.12;54.90;100112.69;5035176;28;20021;-77
2021/05/09 01:25:53;;;;;;;4.18;3.63;;;;;;;14.64;54.51;100202.00;5034973;28;20033;-77
2021/05/09 01:28:18;;;;;;;4.13;3.72;;;;;;;14.63;53.85;100198.50;5034975;28;20036;-76
2021/05/09 01:30:44;;;;;;;4.05;3.50;;;;;;;14.58;53.98;100190.28;5034960;28;20026;-77
2021/05/09 01:33:09;;;;;;;5.75;3.78;;;;;;;14.03;53.59;100123.59;5034933;28;20033;-77
2021/05/09 01:35:34;;;;;;;3.83;3.20;;;;;;;14.56;53.59;100202.09;5034766;28;20037;-77
2021/05/09 01:38:00;;;;;;;5.03;3.60;;;;;;;14.49;53.50;100199.38;5035164;28;20071;-76
2021/05/09 01:40:26;;;;;;;4.78;4.30;;;;;;;14.55;53.50;100203.13;5035003;28;20143;-77
2021/05/09 01:42:52;;;;;;;4.32;3.92;;;;;;;14.13;53.25;100148.03;5034731;28;20026;-76
2021/05/09 01:45:17;;;;;;;4.28;3.88;;;;;;;14.28;53.40;100183.38;5034816;28;20030;-77
2021/05/09 01:47:43;;;;;;;5.43;3.60;;;;;;;14.45;53.61;100203.41;5034678;28;20025;-77
2021/05/09 01:50:16;;;;;;;6.63;4.43;;;;;;;13.77;53.64;100106.31;5034680;28;20040;-78
2021/05/09 01:52:42;;;;;;;5.18;4.20;;;;;;;14.29;53.92;100212.41;5017075;28;20110;-77
2021/05/09 01:55:21;;;;;;;4.63;4.22;;;;;;;14.04;54.01;100179.16;5034758;28;20053;-78
2021/05/09 01:57:46;;;;;;;5.38;4.10;;;;;;;14.16;53.92;100204.25;5034712;28;20033;-76
2021/05/09 02:00:14;;;;;;;6.20;3.95;;;;;;;14.09;54.00;100189.22;5036118;28;20034;-77
2021/05/09 02:02:40;;;;;;;7.13;4.35;;;;;;;14.29;54.06;100214.22;5017583;28;20018;-77
2021/05/09 02:05:06;;;;;;;4.90;4.40;;;;;;;14.34;53.73;100224.28;5034528;28;20035;-76
2021/05/09 02:07:32;;;;;;;5.07;3.88;;;;;;;14.32;54.06;100224.47;5016885;28;20021;-77
2021/05/09 02:09:58;;;;;;;4.57;4.00;;;;;;;14.20;53.93;100218.81;5034611;28;20083;-77
2021/05/09 02:12:23;;;;;;;4.90;3.92;;;;;;;14.29;53.95;100233.66;5016940;28;20029;-76
2021/05/09 02:14:49;;;;;;;4.60;3.78;;;;;;;14.29;54.20;100223.03;5036044;28;20054;-77
2021/05/09 02:17:15;;;;;;;5.50;4.15;;;;;;;14.02;54.07;100185.66;5038613;28;20032;-78
2021/05/09 02:19:40;;;;;;;5.70;4.30;;;;;;;14.29;54.12;100220.38;5038390;28;20086;-77
2021/05/09 02:22:06;;;;;;;6.60;4.00;;;;;;;13.92;53.98;100168.19;5038556;28;20040;-76
2021/05/09 02:24:31;;;;;;;5.38;3.80;;;;;;;14.27;54.33;100229.53;5038387;28;20033;-76
2021/05/09 02:26:57;;;;;;;6.15;4.38;;;;;;;14.27;54.44;100232.19;5020703;28;20090;-77
2021/05/09 02:29:22;;;;;;;4.18;3.78;;;;;;;14.18;54.56;100227.97;5038497;28;20037;-76
2021/05/09 02:31:47;;;;;;;5.80;3.67;;;;;;;14.32;54.06;100253.69;5038278;28;20056;-76
2021/05/09 02:34:13;;;;;;;4.05;3.38;;;;;;;14.24;53.56;100259.13;5038280;28;20079;-77
2021/05/09 02:36:38;;;;;;;3.90;3.42;;;;;;;13.96;53.71;100258.91;5038121;28;20033;-75
2021/05/09 02:39:04;;;;;;;5.30;3.53;;;;;;;13.61;53.74;100247.97;5038231;28;20025;-76
2021/05/09 02:41:29;;;;;;;4.85;4.07;;;;;;;13.36;53.39;100252.66;5038335;28;20029;-76
2021/05/09 02:43:55;;;;;;;4.85;2.95;;;;;;;13.28;54.23;100275.75;5038027;28;20032;-76
2021/05/09 02:46:20;;;;;;;3.70;3.30;;;;;;;12.72;53.65;100214.97;5020542;28;20403;-75
2021/05/09 02:48:45;;;;;;;3.72;3.20;;;;;;;13.07;53.84;100292.28;5038005;28;20037;-76
2021/05/09 02:51:11;;;;;;;3.72;3.15;;;;;;;12.68;54.75;100257.91;5037865;28;20320;-76
2021/05/09 02:53:36;;;;;;;4.30;3.38;;;;;;;12.86;54.46;100311.47;5037931;28;20110;-78
2021/05/09 02:56:02;;;;;;;5.82;3.55;;;;;;;12.71;54.61;100297.28;5037909;28;20030;-77
2021/05/09 02:58:27;;;;;;;5.90;3.63;;;;;;;12.35;54.49;100243.97;5020355;28;20025;-76
2021/05/09 03:00:52;;;;;;;6.30;3.50;;;;;;;12.53;54.36;100273.69;5037811;28;20033;-76
2021/05/09 03:03:18;;;;;;;8.70;3.35;;;;;;;12.80;54.29;100329.88;5037904;28;20099;-76
2021/05/09 03:05:44;;;;;;;3.67;3.22;;;;;;;12.73;54.84;100330.56;5037848;28;20387;-76
2021/05/09 03:08:09;;;;;;;5.88;3.42;;;;;;;12.78;53.92;100339.81;5037607;28;20084;-76
2021/05/09 03:10:35;;;;;;;6.07;2.95;;;;;;;12.80;54.30;100335.19;5037490;28;20075;-77
2021/05/09 03:13:00;;;;;;;6.88;3.72;;;;;;;12.51;54.12;100318.06;5037636;28;20076;-75
2021/05/09 03:15:26;;;;;;;6.63;3.03;;;;;;;12.46;54.29;100295.72;5037588;28;20029;-75
2021/05/09 03:17:51;;;;;;;6.55;3.40;;;;;;;12.35;54.14;100288.97;5037813;28;20112;-77
2021/05/09 03:20:16;;;;;;;6.63;3.13;;;;;;;12.83;54.37;100358.69;5037408;28;20037;-77
2021/05/09 03:22:42;;;;;;;7.10;3.65;;;;;;;12.33;54.42;100275.91;5037185;28;20033;-74
2021/05/09 03:25:08;;;;;;;5.25;3.03;;;;;;;12.69;54.51;100355.75;5019432;28;20087;-76
2021/05/09 03:27:33;;;;;;;6.57;3.70;;;;;;;12.73;54.41;100358.88;5037243;28;20030;-76
2021/05/09 03:29:59;;;;;;;4.45;3.30;;;;;;;12.59;54.54;100325.97;5037419;28;20420;-76
2021/05/09 03:32:24;;;;;;;8.30;4.20;;;;;;;12.30;54.24;100286.84;5037204;28;20340;-76
2021/05/09 03:34:49;;;;;;;8.10;4.05;;;;;;;12.80;53.96;100372.28;5037095;28;20029;-77
2021/05/09 03:37:15;;;;;;;7.28;3.92;;;;;;;12.93;54.18;100381.31;5037130;28;20072;-77
2021/05/09 03:39:40;;;;;;;6.10;3.63;;;;;;;12.72;53.73;100358.06;5036840;28;20029;-75
2021/05/09 03:42:06;;;;;;;5.93;3.45;;;;;;;12.47;53.93;100307.97;5037108;28;20432;-76
2021/05/09 03:44:31;;;;;;;12.63;3.58;;;;;;;12.93;53.79;100377.84;5037263;28;20043;-77
2021/05/09 03:46:56;;;;;;;5.10;3.83;;;;;;;13.12;53.55;100390.69;5037456;28;20368;-76
2021/05/09 03:49:22;;;;;;;6.30;3.22;;;;;;;12.66;53.42;100326.13;5037080;28;20033;-76
2021/05/09 03:51:47;;;;;;;7.47;4.20;;;;;;;12.49;53.37;100293.56;5036975;28;20408;-75
2021/05/09 03:54:12;;;;;;;7.47;4.13;;;;;;;13.23;53.32;100419.50;5036895;28;20029;-74
2021/05/09 03:56:38;;;;;;;9.10;4.28;;;;;;;12.91;54.07;100370.06;5036913;28;20049;-77
2021/05/09 03:59:03;;;;;;;7.28;4.18;;;;;;;13.05;53.54;100387.91;5036784;28;20376;-77
2021/05/09 04:01:29;;;;;;;5.40;3.95;;;;;;;13.26;53.71;100423.63;5036667;28;20111;-77
2021/05/09 04:03:54;;;;;;;10.10;6.65;;;;;;;13.08;54.24;100401.81;5036557;28;20032;-76
2021/05/09 04:06:20;;;;;;;6.97;6.22;;;;;;;13.39;54.11;100423.09;5036639;28;20036;-77
2021/05/09 04:08:45;;;;;;;9.63;7.90;;;;;;;13.49;53.59;100429.81;5036431;28;20119;-74
2021/05/09 04:11:12;;;;;;;7.30;6.60;;;;;;;13.25;53.92;100390.97;5036713;28;20033;-76
2021/05/09 04:13:46;;;;;;;6.35;5.75;;;;;;;13.53;53.81;100433.78;5036361;28;20060;-77
2021/05/09 04:16:11;;;;;;;6.45;4.68;;;;;;;12.94;53.96;100337.91;5036539;28;20087;-76
2021/05/09 04:18:37;;;;;;;6.35;4.80;;;;;;;13.25;53.47;100377.72;5036350;28;20029;-77
2021/05/09 04:21:03;;;;;;;6.25;4.75;;;;;;;13.31;53.86;100379.66;5036367;28;20025;-77
2021/05/09 04:23:28;;;;;;;9.27;4.75;;;;;;;13.82;53.42;100449.00;5036280;28;20025;-76
2021/05/09 04:25:53;;;;;;;5.20;4.70;;;;;;;13.87;53.53;100448.47;5036048;28;20107;-77
2021/05/09 04:28:20;;;;;;;5.97;4.68;;;;;;;13.92;53.50;100449.59;5036221;28;20116;-77
2021/05/09 04:30:46;;;;;;;6.93;4.85;;;;;;;13.86;53.23;100452.94;5036031;28;20095;-77
2021/05/09 04:33:11;;;;;;;7.55;5.10;;;;;;;14.02;53.02;100453.84;5036128;28;20033;-75
2021/05/09 04:35:40;;;;;;;13.00;5.22;;;;;;;14.06;52.95;100455.13;5035954;28;20021;-77
2021/05/09 04:38:06;;;;;;;7.05;5.32;;;;;;;14.07;53.05;100473.53;5035280;28;20037;-77
2021/05/09 04:40:32;;;;;;;6.75;5.22;;;;;;;14.17;52.41;100468.84;5035887;28;20074;-76
2021/05/09 04:43:18;;;;;;;9.52;5.25;;;;;;;14.25;52.78;100463.47;5035947;28;20390;-77
2021/05/09 04:45:48;;;;;;;7.28;5.05;;;;;;;14.29;52.41;100466.59;5018241;28;20073;-77
2021/05/09 04:48:14;;;;;;;5.22;4.78;;;;;;;14.24;52.71;100459.16;5018332;28;20420;-76
2021/05/09 04:50:39;;;;;;;6.68;5.13;;;;;;;13.89;52.61;100391.53;5035753;28;20100;-77
2021/05/09 04:53:25;;;;;;;7.88;5.30;;;;;;;14.23;52.51;100424.81;5035501;28;20029;-76
2021/05/09 04:55:50;;;;;;;5.32;4.82;;;;;;;14.54;52.44;100480.50;5035539;28;20163;-76
2021/05/09 04:58:16;;;;;;;7.30;5.28;;;;;;;14.12;52.14;100411.91;5018034;28;20490;-77
2021/05/09 05:00:41;;;;;;;8.02;5.60;;;;;;;14.58;52.22;100485.28;5035492;28;20159;-77
2021/05/09 05:03:07;;;;;;;6.43;4.53;;;;;;;14.57;51.93;100473.00;5035501;28;20037;-76
2021/05/09 05:05:32;;;;;;;6.70;4.20;;;;;;;14.76;51.58;100489.41;5035406;28;20104;-77
2021/05/09 05:07:58;;;;;;;5.90;4.32;;;;;;;14.84;51.21;100491.97;5017804;28;20451;-77
2021/05/09 05:10:23;;;;;;;6.28;3.83;;;;;;;14.90;50.86;100496.59;5035464;28;20036;-78
2021/05/09 05:12:48;;;;;;;6.65;4.32;;;;;;;14.98;50.61;100493.84;5035178;28;20109;-77
2021/05/09 05:15:14;;;;;;;4.90;4.10;;;;;;;14.94;50.78;100484.59;5035414;28;20029;-77
2021/05/09 05:17:39;;;;;;;4.82;4.03;;;;;;;15.11;50.56;100502.00;5035175;28;20049;-77
2021/05/09 05:20:05;;;;;;;5.13;4.07;;;;;;;14.96;50.02;100490.56;5035230;28;20348;-78
2021/05/09 05:22:31;;;;;;;6.18;4.00;;;;;;;14.68;50.19;100431.84;5035049;28;20041;-76
2021/05/09 05:24:56;;;;;;;5.20;3.88;;;;;;;15.16;50.03;100496.16;5017426;28;20025;-76
2021/05/09 05:27:21;;;;;;;6.28;3.75;;;;;;;15.33;50.08;100518.88;5034976;28;20092;-77
2021/05/09 05:29:47;;;;;;;7.10;3.40;;;;;;;15.38;49.63;100511.16;5037873;28;20071;-77
2021/05/09 05:32:12;;;;;;;3.65;2.70;;;;;;;15.44;49.11;100523.72;5036115;28;20109;-77
2021/05/09 05:34:37;;;;;;;2.97;2.28;;;;;;;15.53;47.97;100519.94;5034974;28;20086;-77
2021/05/09 05:37:03;;;;;;;4.00;2.30;;;;;;;15.54;47.55;100516.28;5034936;28;20029;-78
2021/05/09 05:39:28;;;;;;;2.80;2.10;;;;;;;15.09;47.01;100450.84;5034821;28;20033;-77
2021/05/09 05:41:56;;;;;;;7.13;2.65;;;;;;;15.64;46.80;100526.69;5034890;28;20347;-75
2021/05/09 05:44:21;;;;;;;5.35;2.22;;;;;;;15.62;46.41;100515.41;5017312;28;20368;-77
2021/05/09 05:46:47;;;;;;;3.85;2.15;;;;;;;15.74;46.51;100529.88;5017248;28;20033;-76
2021/05/09 05:49:12;;;;;;;4.45;1.90;;;;;;;15.57;46.19;100491.13;5034823;28;20036;-77
2021/05/09 05:51:37;;;;;;;3.00;1.70;;;;;;;15.37;45.74;100466.94;5034915;28;20029;-78
2021/05/09 05:54:03;;;;;;;2.53;1.90;;;;;;;15.33;45.54;100456.84;5034629;28;20388;-77
2021/05/09 05:56:29;;;;;;;3.40;1.77;;;;;;;15.60;45.27;100500.59;5034773;28;20075;-77
2021/05/09 05:58:54;;;;;;;2.35;1.95;;;;;;;15.89;45.26;100528.00;5034575;28;20420;-76
2021/05/09 06:01:19;;;;;;;3.78;2.00;;;;;;;15.88;45.51;100525.53;5034601;28;20029;-76
2021/05/09 06:03:45;;;;;;;2.97;1.85;;;;;;;15.69;45.52;100488.84;5034640;28;20155;-75
2021/05/09 06:06:11;;;;;;;3.00;1.90;;;;;;;16.08;45.31;100539.88;5017120;28;20415;-76
2021/05/09 06:08:37;;;;;;;2.40;2.08;;;;;;;15.83;45.26;100504.78;5034392;28;20390;-77
2021/05/09 06:11:03;;;;;;;2.50;1.92;;;;;;;15.78;45.37;100496.53;5017032;28;20451;-76
2021/05/09 06:13:28;;;;;;;4.82;2.50;;;;;;;15.87;45.77;100502.56;5016890;28;20025;-77
2021/05/09 06:15:54;;;;;;;5.13;2.72;;;;;;;16.17;45.81;100549.41;5034460;28;20037;-76
2021/05/09 06:18:20;;;;;;;2.70;2.20;;;;;;;16.24;45.32;100551.31;5034546;28;20413;-77
2021/05/09 06:20:46;;;;;;;5.80;2.20;;;;;;;16.15;45.63;100535.44;5034307;28;20033;-77
2021/05/09 06:23:12;;;;;;;2.90;2.20;;;;;;;16.16;45.50;100522.94;5034344;28;20049;-77
2021/05/09 06:25:38;;;;;;;2.83;2.03;;;;;;;16.19;45.19;100530.56;5034230;28;20108;-77
2021/05/09 06:28:04;;;;;;;2.60;2.30;;;;;;;16.21;45.56;100528.53;5034242;28;20037;-77
2021/05/09 06:30:29;;;;;;;3.35;2.33;;;;;;;16.56;45.68;100564.13;5034466;28;20033;-75
2021/05/09 06:32:55;;;;;;;6.82;2.53;;;;;;;16.29;44.61;100493.75;5034287;28;20375;-77
2021/05/09 06:35:20;;;;;;;3.83;2.05;;;;;;;16.28;44.84;100508.09;5034408;28;20317;-77
2021/05/09 06:37:46;;;;;;;2.47;1.90;;;;;;;16.67;44.47;100570.81;5034158;28;20033;-78
2021/05/09 06:40:12;;;;;;;2.28;1.98;;;;;;;16.75;44.52;100573.34;5034184;28;20079;-77
2021/05/09 06:42:37;;;;;;;2.90;2.10;;;;;;;16.75;44.42;100573.34;5034237;28;20040;-76
2021/05/09 06:45:13;;;;;;;4.72;1.92;;;;;;;16.72;44.62;100568.41;5034330;28;20447;-77
2021/05/09 06:47:40;;;;;;;2.78;1.80;;;;;;;16.82;44.74;100567.06;5034165;28;20497;-76
2021/05/09 06:50:06;;;;;;;3.03;1.70;;;;;;;16.52;44.69;100512.22;5034207;28;20105;-76
2021/05/09 06:52:31;;;;;;;3.15;2.00;;;;;;;17.01;44.37;100562.88;5034134;28;20113;-78
2021/05/09 06:54:57;;;;;;;3.08;1.75;;;;;;;16.93;43.90;100560.34;5033842;28;20036;-78
2021/05/09 06:57:22;;;;;;;2.67;1.98;;;;;;;17.00;44.24;100566.56;5034232;28;20033;-77
2021/05/09 06:59:48;;;;;;;3.85;2.65;;;;;;;16.69;44.24;100507.47;5033987;28;20032;-76
2021/05/09 07:02:13;;;;;;;4.63;2.15;;;;;;;17.01;44.79;100576.22;5037865;28;20114;-77
2021/05/09 07:04:38;;;;;;;2.92;2.38;;;;;;;17.04;45.00;100567.00;5037700;28;20021;-75
2021/05/09 07:07:04;;;;;;;3.22;2.10;;;;;;;16.95;45.36;100536.16;5020197;28;20347;-76
2021/05/09 07:09:30;;;;;;;2.17;1.83;;;;;;;17.31;45.38;100587.53;5039320;28;20028;-78
2021/05/09 07:11:55;;;;;;;3.67;2.05;;;;;;;17.40;45.55;100578.34;5039727;28;20044;-76
2021/05/09 07:14:21;;;;;;;2.90;2.05;;;;;;;17.65;45.21;100580.50;5037441;28;20036;-76
2021/05/09 07:16:46;;;;;;;3.58;1.70;;;;;;;17.41;44.91;100539.13;5037429;28;20035;-76
2021/05/09 07:19:12;;;;;;;5.32;2.05;;;;;;;17.68;44.67;100578.28;5019920;28;20021;-78
2021/05/09 07:21:43;;;;;;;3.80;2.17;;;;;;;17.84;44.56;100595.03;5037367;28;20026;-77
2021/05/09 07:24:09;;;;;;;;;;;;;;;17.75;44.72;100589.00;5037840;28;20029;-76
2021/05/09 07:26:35;;;;;;;3.72;2.20;;;;;;;17.70;43.95;100589.59;5037161;28;19909;-79
2021/05/09 07:29:00;;;;;;;2.67;1.95;;;;;;;17.67;44.56;100595.34;5019733;28;20052;-77
2021/05/09 07:31:26;;;;;;;2.03;1.90;;;;;;;17.57;44.57;100575.34;5037303;28;20440;-76
2021/05/09 07:33:51;;;;;;;3.33;2.10;;;;;;;17.46;44.67;100542.00;5019531;28;20139;-77
2021/05/09 07:36:16;;;;;;;2.50;2.00;;;;;;;17.80;44.62;100594.56;5037346;28;20080;-76
2021/05/09 07:38:42;;;;;;;2.50;2.00;;;;;;;17.75;44.71;100581.00;5037108;28;20409;-78
2021/05/09 07:41:08;;;;;;;2.15;2.00;;;;;;;17.85;44.16;100586.00;5037097;28;20025;-78
2021/05/09 07:43:33;;;;;;;2.53;1.98;;;;;;;17.92;44.03;100609.03;5019593;28;20379;-76
2021/05/09 07:45:59;;;;;;;2.05;1.85;;;;;;;18.08;43.67;100600.66;5036874;28;20029;-77
2021/05/09 07:48:25;;;;;;;5.18;2.10;;;;;;;18.19;43.38;100599.25;5037018;28;20344;-78
2021/05/09 07:50:51;;;;;;;2.58;2.00;;;;;;;18.08;43.28;100565.91;5036790;28;20030;-76
2021/05/09 07:53:18;;;;;;;1.65;1.55;;;;;;;18.22;43.06;100606.03;5036808;28;20030;-76
2021/05/09 07:55:43;;;;;;;3.90;1.77;;;;;;;18.06;42.71;100557.28;5036634;28;20025;-76
2021/05/09 07:58:16;;;;;;;2.50;1.92;;;;;;;18.24;42.91;100614.69;5036849;28;20537;-77
2021/05/09 08:00:42;;;;;;;1.92;1.73;;;;;;;18.30;42.91;100611.22;5036737;28;20029;-76
2021/05/09 08:03:07;;;;;;;2.45;1.92;;;;;;;18.39;43.19;100616.16;5036753;28;20032;-77
2021/05/09 08:05:33;;;;;;;3.05;1.65;;;;;;;18.52;42.69;100596.63;5036749;28;20025;-78
2021/05/09 08:07:58;;;;;;;5.05;1.65;;;;;;;18.57;41.74;100575.44;5018966;28;20079;-77
2021/05/09 08:10:26;;;;;;;3.00;1.90;;;;;;;18.82;41.22;100607.81;5036611;28;20034;-77
2021/05/09 08:12:52;;;;;;;3.08;1.58;;;;;;;18.93;41.15;100609.06;5035217;28;20497;-77
2021/05/09 08:15:21;;;;;;;2.38;1.80;;;;;;;19.04;40.76;100603.09;5036466;28;20037;-77
2021/05/09 08:17:46;;;;;;;3.40;1.67;;;;;;;18.89;40.78;100571.19;5036372;28;20057;-77
2021/05/09 08:20:13;;;;;;;1.42;1.33;;;;;;;19.11;40.77;100603.91;5018855;28;20159;-78
2021/05/09 08:22:39;;;;;;;1.52;1.35;;;;;;;18.98;40.76;100603.91;5036284;28;20033;-77
2021/05/09 08:25:06;;;;;;;3.63;1.50;;;;;;;18.68;41.26;100574.91;5036143;28;20021;-78
2021/05/09 08:27:33;;;;;;;2.78;1.80;;;;;;;18.98;41.35;100594.03;5036146;28;20098;-78
2021/05/09 08:29:59;;;;;;;3.58;1.73;;;;;;;19.06;40.92;100579.59;5036030;28;20052;-77
2021/05/09 08:32:27;;;;;;;2.30;1.60;;;;;;;19.18;40.65;100577.13;5036075;28;20424;-78
2021/05/09 08:34:52;;;;;;;1.77;1.60;;;;;;;19.62;40.47;100612.09;5036021;28;20030;-76
2021/05/09 08:37:17;;;;;;;1.65;1.55;;;;;;;19.47;40.50;100591.91;5036086;28;20487;-77
2021/05/09 08:39:43;;;;;;;3.30;1.75;;;;;;;19.16;40.17;100560.44;5035852;28;20395;-78
2021/05/09 08:42:14;;;;;;;5.13;2.20;;;;;;;19.08;40.47;100576.72;5018532;28;20049;-78
2021/05/09 08:44:39;;;;;;;2.30;1.63;;;;;;;19.27;40.47;100614.16;5035971;28;20351;-77
2021/05/09 08:47:05;;;;;;;2.15;1.90;;;;;;;18.95;40.25;100514.16;5020653;28;20036;-78
2021/05/09 08:49:40;;;;;;;2.42;1.58;;;;;;;19.86;39.36;100597.16;5038363;28;20025;-77
2021/05/09 08:52:06;;;;;;;2.05;1.58;;;;;;;20.05;39.06;100603.44;5018398;28;20033;-76
2021/05/09 08:54:32;;;;;;;2.00;1.52;;;;;;;19.84;38.37;100542.13;5035849;28;20091;-76
2021/05/09 08:56:57;;;;;;;2.22;1.50;;;;;;;20.33;38.30;100613.03;5036256;28;20108;-79
2021/05/09 08:59:23;;;;;;;3.08;1.77;;;;;;;20.36;37.92;100600.00;5036983;28;20349;-77
2021/05/09 09:01:48;;;;;;;1.67;1.42;;;;;;;20.57;38.08;100614.94;5035609;28;20029;-77
2021/05/09 09:04:14;;;;;;;2.85;1.65;;;;;;;20.36;37.91;100542.84;5035735;28;20032;-77
2021/05/09 09:06:41;;;;;;;2.00;1.30;;;;;;;20.66;37.16;100572.56;5035621;28;20325;-78
2021/05/09 09:09:16;;;;;;;3.85;1.67;;;;;;;20.85;37.06;100585.84;5035466;28;20036;-77
2021/05/09 09:11:48;;;;;;;3.72;1.90;;;;;;;20.94;36.56;100546.13;5017816;28;20065;-78
2021/05/09 09:14:13;;;;;;;3.10;1.52;;;;;;;21.56;36.40;100598.00;5035306;28;20025;-77
2021/05/09 09:16:39;;;;;;;1.30;1.20;;;;;;;21.58;35.96;100574.41;5035221;28;20108;-77
2021/05/09 09:19:13;;;;;;;1.80;1.30;;;;;;;21.78;35.75;100566.94;5035173;28;20028;-77
2021/05/09 09:21:39;;;;;;;2.35;1.33;;;;;;;22.14;35.56;100598.34;5035278;28;20068;-77
2021/05/09 09:24:11;;;;;;;2.20;1.38;;;;;;;21.92;35.84;100599.03;5034814;28;20052;-77
2021/05/09 09:26:39;;;;;;;1.63;1.33;;;;;;;21.64;36.21;100604.97;5035048;28;20033;-78
2021/05/09 09:29:26;;;;;;;2.15;0.85;;;;;;;21.48;36.26;100555.28;5035009;28;20068;-78
2021/05/09 09:31:56;;;;;;;2.80;1.20;;;;;;;21.81;34.94;100546.84;5035136;28;20071;-76
2021/05/09 09:34:35;;;;;;;2.05;1.30;;;;;;;22.35;34.88;100588.97;5017503;28;20117;-75
2021/05/09 09:37:02;;;;;;;3.22;1.40;;;;;;;22.60;34.77;100585.28;5017344;28;20034;-78
2021/05/09 09:40:03;;;;;;;4.40;1.52;;;;;;;22.17;35.17;100584.44;5034904;28;20101;-77
2021/05/09 09:42:39;;;;;;;4.30;1.42;;;;;;;22.06;35.36;100570.94;5034814;28;20117;-76
2021/05/09 09:45:31;;;;;;;2.42;1.17;;;;;;;22.54;34.36;100580.81;5034747;28;20032;-78
2021/05/09 09:47:59;;;;;;;2.78;1.63;;;;;;;22.33;33.27;100506.81;5034805;28;20049;-79
2021/05/09 09:50:40;;;;;;;2.00;1.10;;;;;;;22.89;32.67;100560.16;5017375;28;20025;-76
2021/05/09 09:53:32;;;;;;;3.50;1.17;;;;;;;22.48;32.90;100569.91;5034740;28;20164;-78
2021/05/09 09:56:09;;;;;;;1.60;1.33;;;;;;;22.79;32.73;100560.72;5034653;28;20064;-78
2021/05/09 09:58:56;;;;;;;2.67;1.13;;;;;;;23.15;32.47;100564.28;5034837;28;20079;-78
2021/05/09 10:01:33;;;;;;;1.50;1.25;;;;;;;23.30;31.86;100540.34;5034797;28;20029;-76
2021/05/09 10:04:07;;;;;;;1.88;1.40;;;;;;;23.52;31.72;100556.72;5034425;28;20080;-75
2021/05/09 10:06:34;;;;;;;1.33;1.20;;;;;;;23.13;32.12;100563.69;5034876;28;20029;-79
2021/05/09 10:08:59;;;;;;;3.08;1.40;;;;;;;22.85;32.42;100564.38;5034986;28;20112;-77
2021/05/09 10:11:27;;;;;;;4.15;1.70;;;;;;;22.29;32.76;100508.31;5034566;28;20182;-78
2021/05/09 10:13:52;;;;;;;2.13;1.58;;;;;;;22.36;33.38;100573.63;5016832;28;20036;-78
2021/05/09 10:16:21;;;;;;;2.05;1.42;;;;;;;22.52;32.80;100571.09;5017036;28;20033;-77
2021/05/09 10:18:49;;;;;;;1.85;1.20;;;;;;;22.30;32.82;100561.09;5034385;28;20053;-78
2021/05/09 10:21:15;;;;;;;3.17;1.25;;;;;;;22.86;32.57;100574.09;5034492;28;20025;-78
2021/05/09 10:24:16;;;;;;;1.70;1.40;;;;;;;22.87;31.66;100561.44;5037588;28;20043;-77
2021/05/09 10:26:53;;;;;;;3.87;1.67;;;;;;;22.52;32.82;100565.72;4959176;28;20043;-78
2021/05/09 10:29:52;;;;;;;3.85;1.80;;;;;;;22.13;33.33;100574.34;5024185;28;20037;-77
2021/05/09 10:32:20;;;;;;;1.63;1.30;;;;;;;21.74;33.70;100575.69;5034545;28;20041;-78
2021/05/09 10:37:35;;;;;;;2.85;1.20;;;;;;;22.73;32.51;100555.44;5038299;28;20057;-78
2021/05/09 10:40:18;;;;;;;3.10;1.70;;;;;;;22.74;32.27;100557.91;5038131;28;20096;-78
2021/05/09 10:42:45;;;;;;;2.50;1.30;;;;;;;22.85;32.34;100552.78;5038023;28;20036;-78
2021/05/09 10:45:10;;;;;;;1.98;1.58;;;;;;;22.94;32.01;100560.28;5020579;28;20033;-78
2021/05/09 10:47:36;;;;;;;2.42;1.48;;;;;;;22.80;31.95;100481.59;5038206;28;20439;-77
2021/05/09 10:50:27;;;;;;;3.08;1.70;;;;;;;23.50;31.56;100558.00;5037894;28;20504;-77
2021/05/09 10:52:55;;;;;;;3.28;1.50;;;;;;;23.97;30.92;100554.16;5038368;28;20026;-76
2021/05/09 10:55:35;;;;;;;2.25;1.45;;;;;;;24.43;30.12;100557.69;5038092;28;20057;-78
2021/05/09 10:58:02;;;;;;;1.73;1.52;;;;;;;24.66;29.71;100522.44;5037853;28;20033;-78
2021/05/09 11:00:28;;;;;;;2.28;1.15;;;;;;;25.01;29.30;100535.69;5037942;28;20025;-77
2021/05/09 11:02:54;;;;;;;2.25;1.30;;;;;;;25.14;28.92;100539.09;5020261;28;20406;-77
2021/05/09 11:05:20;;;;;;;1.77;1.23;;;;;;;24.75;29.07;100541.75;5020373;28;20044;-77
2021/05/09 11:07:46;;;;;;;1.23;1.13;;;;;;;24.09;29.17;100527.94;5037663;28;20025;-77
2021/05/09 11:10:31;;;;;;;1.20;1.10;;;;;;;23.76;29.39;100531.34;5037920;28;20040;-78
2021/05/09 11:13:09;;;;;;;2.90;1.85;;;;;;;24.11;29.19;100532.28;5037448;28;20416;-79
2021/05/09 11:15:34;;;;;;;1.48;1.30;;;;;;;24.54;29.21;100540.63;5037677;28;20470;-78
2021/05/09 11:18:00;;;;;;;2.78;1.30;;;;;;;24.63;28.40;100487.84;5037478;28;20033;-79
2021/05/09 11:20:26;;;;;;;5.07;1.88;;;;;;;24.90;28.42;100536.59;5020015;28;20033;-77
2021/05/09 11:22:58;;;;;;;2.38;1.17;;;;;;;24.99;27.94;100499.19;5037410;28;20475;-76
2021/05/09 11:25:31;;;;;;;2.90;1.25;;;;;;;25.36;27.46;100529.16;5037361;28;20420;-78
2021/05/09 11:27:56;;;;;;;1.30;1.20;;;;;;;25.64;27.29;100544.34;5019491;28;20033;-78